sensor_id;sensor_type;location;lat;lon;timestamp;P1;durP1;ratioP1;P2;durP2;ratioP2
30384;SDS011;17181;51.002;4.096;2023-11-21T07:19:25;21.37;;;8.20;;
30384;SDS011;17181;51.002;4.096;2023-11-21T11:59:05;1.67;;;1.30;;
30384;SDS011;17181;51.002;4.096;2023-11-21T12:01:34;2.57;;;1.83;;
30384;SDS011;17181;51.002;4.096;2023-11-21T12:06:59;1.63;;;1.53;;
30384;SDS011;17181;51.002;4.096;2023-11-21T12:09:28;7.30;;;1.90;;
30384;SDS011;17181;51.002;4.096;2023-11-21T12:11:56;5.63;;;1.83;;
30384;SDS011;17181;51.002;4.096;2023-11-21T12:14:23;5.47;;;2.30;;
30384;SDS011;17181;51.002;4.096;2023-11-21T12:16:49;1.93;;;1.80;;
30384;SDS011;17181;51.002;4.096;2023-11-21T12:19:16;3.83;;;2.20;;
30384;SDS011;17181;51.002;4.096;2023-11-21T12:21:43;8.90;;;1.77;;
30384;SDS011;17181;51.002;4.096;2023-11-21T12:24:09;7.27;;;3.13;;
30384;SDS011;17181;51.002;4.096;2023-11-21T12:26:39;3.13;;;1.47;;
30384;SDS011;17181;51.002;4.096;2023-11-21T12:29:05;7.43;;;1.63;;
30384;SDS011;17181;51.002;4.096;2023-11-21T12:31:33;3.40;;;1.83;;
30384;SDS011;17181;51.002;4.096;2023-11-21T12:34:02;3.00;;;2.03;;
30384;SDS011;17181;51.002;4.096;2023-11-21T12:36:29;4.50;;;1.53;;
30384;SDS011;17181;51.002;4.096;2023-11-21T12:38:55;2.03;;;1.37;;
30384;SDS011;17181;51.002;4.096;2023-11-21T12:41:21;3.17;;;1.90;;
30384;SDS011;17181;51.002;4.096;2023-11-21T12:43:47;4.30;;;1.60;;
30384;SDS011;17181;51.002;4.096;2023-11-21T12:46:13;2.30;;;2.10;;
30384;SDS011;17181;51.002;4.096;2023-11-21T12:48:43;4.37;;;1.50;;
30384;SDS011;17181;51.002;4.096;2023-11-21T12:51:14;2.17;;;1.83;;
30384;SDS011;17181;51.002;4.096;2023-11-21T12:53:41;6.30;;;2.90;;
30384;SDS011;17181;51.002;4.096;2023-11-21T12:56:11;4.07;;;3.00;;
30384;SDS011;17181;51.002;4.096;2023-11-21T12:58:38;5.40;;;2.63;;
30384;SDS011;17181;51.002;4.096;2023-11-21T13:01:08;3.50;;;2.87;;
30384;SDS011;17181;51.002;4.096;2023-11-21T13:03:40;3.23;;;2.90;;
30384;SDS011;17181;51.002;4.096;2023-11-21T13:06:07;4.53;;;3.13;;
30384;SDS011;17181;51.002;4.096;2023-11-21T13:08:33;3.30;;;2.87;;
30384;SDS011;17181;51.002;4.096;2023-11-21T13:10:59;7.83;;;3.87;;
30384;SDS011;17181;51.002;4.096;2023-11-21T13:13:30;8.97;;;3.57;;
30384;SDS011;17181;51.002;4.096;2023-11-21T13:15:59;5.83;;;2.80;;
30384;SDS011;17181;51.002;4.096;2023-11-21T13:18:28;7.13;;;3.23;;
30384;SDS011;17181;51.002;4.096;2023-11-21T13:21:03;6.10;;;3.10;;
30384;SDS011;17181;51.002;4.096;2023-11-21T13:23:40;3.67;;;2.77;;
30384;SDS011;17181;51.002;4.096;2023-11-21T13:26:07;9.50;;;3.67;;
30384;SDS011;17181;51.002;4.096;2023-11-21T13:28:34;3.23;;;2.73;;
30384;SDS011;17181;51.002;4.096;2023-11-21T13:31:01;7.90;;;3.17;;
30384;SDS011;17181;51.002;4.096;2023-11-21T13:33:34;5.13;;;3.20;;
30384;SDS011;17181;51.002;4.096;2023-11-21T13:36:06;7.00;;;3.30;;
30384;SDS011;17181;51.002;4.096;2023-11-21T13:38:34;3.43;;;3.07;;
30384;SDS011;17181;51.002;4.096;2023-11-21T13:41:02;4.40;;;2.33;;
30384;SDS011;17181;51.002;4.096;2023-11-21T13:43:32;5.13;;;3.67;;
30384;SDS011;17181;51.002;4.096;2023-11-21T13:45:58;5.43;;;2.63;;
30384;SDS011;17181;51.002;4.096;2023-11-21T13:48:35;2.93;;;2.53;;
30384;SDS011;17181;51.002;4.096;2023-11-21T13:51:08;3.30;;;2.80;;
30384;SDS011;17181;51.002;4.096;2023-11-21T13:53:47;5.00;;;2.90;;
30384;SDS011;17181;51.002;4.096;2023-11-21T13:56:15;4.47;;;2.80;;
30384;SDS011;17181;51.002;4.096;2023-11-21T13:58:53;4.80;;;3.17;;
30384;SDS011;17181;51.002;4.096;2023-11-21T14:01:20;6.30;;;3.23;;
30384;SDS011;17181;51.002;4.096;2023-11-21T14:04:08;5.93;;;2.50;;
30384;SDS011;17181;51.002;4.096;2023-11-21T14:06:51;6.90;;;2.53;;
30384;SDS011;17181;51.002;4.096;2023-11-21T14:09:23;3.87;;;2.17;;
30384;SDS011;17181;51.002;4.096;2023-11-21T14:11:58;4.17;;;2.97;;
30384;SDS011;17181;51.002;4.096;2023-11-21T14:14:25;6.13;;;2.63;;
30384;SDS011;17181;51.002;4.096;2023-11-21T14:16:55;4.50;;;3.07;;
30384;SDS011;17181;51.002;4.096;2023-11-21T14:19:21;8.13;;;3.13;;
30384;SDS011;17181;51.002;4.096;2023-11-21T14:21:51;4.47;;;2.63;;
30384;SDS011;17181;51.002;4.096;2023-11-21T14:24:18;2.00;;;1.80;;
30384;SDS011;17181;51.002;4.096;2023-11-21T14:26:46;5.13;;;3.30;;
30384;SDS011;17181;51.002;4.096;2023-11-21T14:29:13;4.50;;;2.47;;
30384;SDS011;17181;51.002;4.096;2023-11-21T14:31:43;6.33;;;3.10;;
30384;SDS011;17181;51.002;4.096;2023-11-21T14:34:12;4.53;;;2.53;;
30384;SDS011;17181;51.002;4.096;2023-11-21T14:36:40;3.73;;;2.90;;
30384;SDS011;17181;51.002;4.096;2023-11-21T14:39:06;3.70;;;2.80;;
30384;SDS011;17181;51.002;4.096;2023-11-21T14:41:34;6.13;;;2.53;;
30384;SDS011;17181;51.002;4.096;2023-11-21T14:44:03;3.57;;;2.40;;
30384;SDS011;17181;51.002;4.096;2023-11-21T14:46:32;7.03;;;2.30;;
30384;SDS011;17181;51.002;4.096;2023-11-21T14:49:00;2.40;;;1.77;;
30384;SDS011;17181;51.002;4.096;2023-11-21T14:51:44;2.63;;;1.90;;
30384;SDS011;17181;51.002;4.096;2023-11-21T14:54:26;3.53;;;2.10;;
30384;SDS011;17181;51.002;4.096;2023-11-21T14:57:20;4.90;;;2.80;;
30384;SDS011;17181;51.002;4.096;2023-11-21T14:59:48;3.20;;;2.20;;
30384;SDS011;17181;51.002;4.096;2023-11-21T15:02:23;4.90;;;2.97;;
30384;SDS011;17181;51.002;4.096;2023-11-21T15:05:09;3.47;;;2.40;;
30384;SDS011;17181;51.002;4.096;2023-11-21T15:07:40;4.70;;;2.63;;
30384;SDS011;17181;51.002;4.096;2023-11-21T15:10:06;1.33;;;1.23;;
30384;SDS011;17181;51.002;4.096;2023-11-21T15:12:39;4.70;;;2.70;;
30384;SDS011;17181;51.002;4.096;2023-11-21T15:15:07;5.33;;;2.30;;
30384;SDS011;17181;51.002;4.096;2023-11-21T15:17:35;4.67;;;3.00;;
30384;SDS011;17181;51.002;4.096;2023-11-21T15:20:02;5.80;;;2.90;;
30384;SDS011;17181;51.002;4.096;2023-11-21T15:22:32;3.33;;;2.53;;
30384;SDS011;17181;51.002;4.096;2023-11-21T15:24:57;1.53;;;1.33;;
30384;SDS011;17181;51.002;4.096;2023-11-21T15:27:24;6.33;;;3.07;;
30384;SDS011;17181;51.002;4.096;2023-11-21T15:29:50;5.60;;;3.17;;
30384;SDS011;17181;51.002;4.096;2023-11-21T15:32:16;4.23;;;2.67;;
30384;SDS011;17181;51.002;4.096;2023-11-21T15:34:41;6.73;;;3.03;;
30384;SDS011;17181;51.002;4.096;2023-11-21T15:37:07;2.93;;;2.03;;
30384;SDS011;17181;51.002;4.096;2023-11-21T15:39:39;4.97;;;2.47;;
30384;SDS011;17181;51.002;4.096;2023-11-21T15:42:05;2.10;;;1.73;;
30384;SDS011;17181;51.002;4.096;2023-11-21T15:44:32;8.47;;;2.70;;
30384;SDS011;17181;51.002;4.096;2023-11-21T15:46:58;4.37;;;3.10;;
30384;SDS011;17181;51.002;4.096;2023-11-21T15:49:25;3.53;;;2.20;;
30384;SDS011;17181;51.002;4.096;2023-11-21T15:51:52;3.63;;;2.57;;
30384;SDS011;17181;51.002;4.096;2023-11-21T15:54:19;4.13;;;2.67;;
30384;SDS011;17181;51.002;4.096;2023-11-21T15:56:46;8.13;;;2.43;;
30384;SDS011;17181;51.002;4.096;2023-11-21T15:59:17;2.23;;;1.80;;
30384;SDS011;17181;51.002;4.096;2023-11-21T16:01:43;13.50;;;3.23;;
30384;SDS011;17181;51.002;4.096;2023-11-21T16:04:12;2.77;;;2.37;;
30384;SDS011;17181;51.002;4.096;2023-11-21T16:06:45;3.67;;;2.40;;
30384;SDS011;17181;51.002;4.096;2023-11-21T16:09:12;3.63;;;2.53;;
30384;SDS011;17181;51.002;4.096;2023-11-21T16:12:02;5.30;;;3.00;;
30384;SDS011;17181;51.002;4.096;2023-11-21T16:14:32;7.00;;;3.23;;
30384;SDS011;17181;51.002;4.096;2023-11-21T16:17:10;5.03;;;2.70;;
30384;SDS011;17181;51.002;4.096;2023-11-21T16:19:39;7.27;;;3.00;;
30384;SDS011;17181;51.002;4.096;2023-11-21T16:22:10;3.17;;;2.63;;
30384;SDS011;17181;51.002;4.096;2023-11-21T16:24:36;7.67;;;2.90;;
30384;SDS011;17181;51.002;4.096;2023-11-21T16:27:03;3.77;;;2.53;;
30384;SDS011;17181;51.002;4.096;2023-11-21T16:29:29;6.37;;;4.10;;
30384;SDS011;17181;51.002;4.096;2023-11-21T16:31:56;7.33;;;4.13;;
30384;SDS011;17181;51.002;4.096;2023-11-21T16:34:22;8.80;;;4.27;;
30384;SDS011;17181;51.002;4.096;2023-11-21T16:36:48;6.60;;;3.40;;
30384;SDS011;17181;51.002;4.096;2023-11-21T16:39:14;8.70;;;3.57;;
30384;SDS011;17181;51.002;4.096;2023-11-21T16:41:42;5.73;;;3.90;;
30384;SDS011;17181;51.002;4.096;2023-11-21T16:44:13;4.77;;;3.00;;
30384;SDS011;17181;51.002;4.096;2023-11-21T16:46:46;5.13;;;3.20;;
30384;SDS011;17181;51.002;4.096;2023-11-21T16:49:18;5.27;;;2.93;;
30384;SDS011;17181;51.002;4.096;2023-11-21T16:51:44;7.20;;;3.07;;
30384;SDS011;17181;51.002;4.096;2023-11-21T16:54:13;5.00;;;3.57;;
30384;SDS011;17181;51.002;4.096;2023-11-21T16:56:46;7.73;;;4.07;;
30384;SDS011;17181;51.002;4.096;2023-11-21T16:59:12;4.80;;;3.20;;
30384;SDS011;17181;51.002;4.096;2023-11-21T17:01:38;7.30;;;4.30;;
30384;SDS011;17181;51.002;4.096;2023-11-21T17:04:04;7.67;;;4.07;;
30384;SDS011;17181;51.002;4.096;2023-11-21T17:06:30;4.60;;;3.43;;
30384;SDS011;17181;51.002;4.096;2023-11-21T17:08:57;8.90;;;5.10;;
30384;SDS011;17181;51.002;4.096;2023-11-21T17:11:29;6.57;;;4.13;;
30384;SDS011;17181;51.002;4.096;2023-11-21T17:13:54;7.37;;;3.70;;
30384;SDS011;17181;51.002;4.096;2023-11-21T17:16:21;6.03;;;3.87;;
30384;SDS011;17181;51.002;4.096;2023-11-21T17:18:46;11.10;;;4.20;;
30384;SDS011;17181;51.002;4.096;2023-11-21T17:21:12;5.57;;;3.73;;
30384;SDS011;17181;51.002;4.096;2023-11-21T17:23:39;7.13;;;4.27;;
30384;SDS011;17181;51.002;4.096;2023-11-21T17:26:04;10.77;;;3.90;;
30384;SDS011;17181;51.002;4.096;2023-11-21T17:28:30;8.77;;;3.63;;
30384;SDS011;17181;51.002;4.096;2023-11-21T17:30:56;3.90;;;3.20;;
30384;SDS011;17181;51.002;4.096;2023-11-21T17:33:22;9.10;;;4.37;;
30384;SDS011;17181;51.002;4.096;2023-11-21T17:35:47;9.63;;;5.00;;
30384;SDS011;17181;51.002;4.096;2023-11-21T17:38:14;7.10;;;4.10;;
30384;SDS011;17181;51.002;4.096;2023-11-21T17:40:40;6.50;;;4.00;;
30384;SDS011;17181;51.002;4.096;2023-11-21T17:43:06;6.47;;;4.10;;
30384;SDS011;17181;51.002;4.096;2023-11-21T17:45:32;8.03;;;4.57;;
30384;SDS011;17181;51.002;4.096;2023-11-21T17:47:58;8.33;;;5.20;;
30384;SDS011;17181;51.002;4.096;2023-11-21T17:50:25;8.30;;;4.27;;
30384;SDS011;17181;51.002;4.096;2023-11-21T17:52:51;6.30;;;3.87;;
30384;SDS011;17181;51.002;4.096;2023-11-21T17:55:16;7.53;;;4.77;;
30384;SDS011;17181;51.002;4.096;2023-11-21T17:57:42;12.17;;;6.07;;
30384;SDS011;17181;51.002;4.096;2023-11-21T18:00:12;5.50;;;4.13;;
30384;SDS011;17181;51.002;4.096;2023-11-21T18:02:41;7.60;;;4.47;;
30384;SDS011;17181;51.002;4.096;2023-11-21T18:05:07;6.27;;;4.27;;
30384;SDS011;17181;51.002;4.096;2023-11-21T18:07:38;9.03;;;4.80;;
30384;SDS011;17181;51.002;4.096;2023-11-21T18:10:04;11.40;;;4.80;;
30384;SDS011;17181;51.002;4.096;2023-11-21T18:12:32;14.57;;;4.87;;
30384;SDS011;17181;51.002;4.096;2023-11-21T18:14:58;8.63;;;4.13;;
30384;SDS011;17181;51.002;4.096;2023-11-21T18:17:24;13.20;;;4.90;;
30384;SDS011;17181;51.002;4.096;2023-11-21T18:19:50;9.20;;;4.57;;
30384;SDS011;17181;51.002;4.096;2023-11-21T18:22:20;16.70;;;5.70;;
30384;SDS011;17181;51.002;4.096;2023-11-21T18:24:51;11.63;;;5.30;;
30384;SDS011;17181;51.002;4.096;2023-11-21T18:27:22;9.40;;;4.93;;
30384;SDS011;17181;51.002;4.096;2023-11-21T18:29:55;9.37;;;4.43;;
30384;SDS011;17181;51.002;4.096;2023-11-21T18:32:27;14.77;;;5.03;;
30384;SDS011;17181;51.002;4.096;2023-11-21T18:34:53;11.43;;;5.50;;
30384;SDS011;17181;51.002;4.096;2023-11-21T19:06:07;17.00;;;7.13;;
30384;SDS011;17181;51.002;4.096;2023-11-21T19:08:40;17.80;;;8.30;;
